Dalmeny, Canada
Current Conditions -  °F | °C
As of 5:00 PM on Wednesday 22 Oct 2014 (Local Time) from CYXE Reporting Station
Broken Clouds Broken Clouds  
Wind Chill: 14°   Ceiling: 30000
Heat Index: 14°   Visibility: 15mi
Dew Point:   Wind: 5mph
Humidity: 59%   Direction: 80°E
Pressure: 29.72"   Gusts: NA
Location:  52.33°N, 106.78°W
Report Text: CYXE 222300Z 08004KT 030V100 15SM BKN300 14/06 A2972 RMK CI5 SLP076 DENSITY ALT 2000FT
Loading
Personal Weather Stations






























Interactive Weather Map
Tropical Storm Tracking
New forecast layout! Learn more

10-Day Weather Forecast

Advertisements
Track Severe Weather on mobile